Howe Sound: Past 24 Hour Conditions

 

Halibut Bank - 46146

01:00 AM PDT 20 October 2017Buoy position: 49.34N 123.72W
Disclaimer

This table is a summary of hourly weather conditions for the past 24 hours.
Please note that these observations might not always be representative of weather conditions over their associated marine area.

Date / Time
(PDT)
Wind(knots) Wave height(m) Wave period(s) Pressure(kPa) Air tempC) Water tempC)
20 October 2017
1:00 SE 8 gust 10 0.3 2.0 99.8 10 11
0:00 SE 10 gust 12 0.3 2.0 99.8 10 11
19 October 2017
23:00 ESE 12 gust 14 0.3 3.0 99.8 10 11
22:00 ESE 12 gust 14 0.3 3.0 99.7 10 11
21:00 ESE 12 gust 14 0.4 3.0 99.7 10 11
20:00 ESE 12 gust 14 0.5 4.0 99.7 10 11
19:00 SE 14 gust 18 0.6 3.0 99.7 11 11
18:00 ESE 18 gust 19 0.5 3.0 99.6 10 11
17:00 ESE 10 gust 12 0.5 3.0 99.6 11 11
16:00 SSE 12 gust 14 0.6 4.0 99.6 11 11
15:00 SSE 14 gust 18 0.5 3.0 99.6 11 11
14:00 ESE 14 gust 16 0.6 3.0 99.7 11 11
13:00 ESE 16 gust 19 0.7 4.0 99.7 11 11
12:00 SE 14 gust 18 0.7 4.0 99.7 12 11
11:00 SE 16 gust 19 0.6 4.0 99.7 11 11
10:00 SE 16 gust 19 0.7 4.0 99.8 11 11
9:00 SE 16 gust 19 0.7 4.0 99.8 11 11
8:00 SE 16 gust 18 0.6 3.0 99.8 11 11
7:00 SE 12 gust 16 0.6 3.0 99.8 11 11
6:00 SSE 18 gust 21 0.6 4.0 99.8 12 11
5:00 SSE 14 gust 18 0.5 3.0 99.8 12 11
4:00 SE 16 gust 18 0.6 3.0 99.8 12 11
3:00 SSE 16 gust 18 0.5 3.0 99.8 11 11
2:00 E 14 gust 18 0.6 4.0 99.9 11 11
1:00 SSE 12 gust 14 0.6 4.0 99.9 12 11

Zoom-in to make a selection

Map of Pacific - Georgia Basin marine weather areas Tsawwassen Ferry Terminal Sentry Shoal - 46131 Halibut Bank - 46146 La Perouse Bank - 46206 Discovery Island Esquimalt Harbour Kelp Reefs Malahat Race Rocks Lightstation Saturna Island Sheringham Point University of Victoria Victoria Gonzales Victoria Int'l Airport Ballenas Islands Campbell River Airport Comox Airport Entrance Island Fanny Island Nanaimo Airport Sisters Islets Estevan Point Tofino Airport Grief Point Powell River Airport Sechelt Point Atkinson Sand Heads Lightstation Vancouver Harbour Vancouver Int'l Airport West Vancouver Port Alberni Howe Sound - Pam Rocks Squamish Airport
Legend:
buoy Buoy
land station Land Station

Pacific - Georgia Basin Area

Another Region

What we are doing

Features

Summer 2017: Significant weather across Canada

By analyzing weather events, ECCC is collecting more information as to how our climate is changing.

Date modified: